sensor_id;sensor_type;location;lat;lon;timestamp;P1;durP1;ratioP1;P2;durP2;ratioP2
12925;SDS011;6529;50.566;9.774;2024-03-22T00:01:58;4.67;;;4.07;;
12925;SDS011;6529;50.566;9.774;2024-03-22T00:04:23;5.83;;;4.23;;
12925;SDS011;6529;50.566;9.774;2024-03-22T00:06:49;5.67;;;4.67;;
12925;SDS011;6529;50.566;9.774;2024-03-22T00:09:15;6.10;;;4.80;;
12925;SDS011;6529;50.566;9.774;2024-03-22T00:11:42;5.00;;;4.27;;
12925;SDS011;6529;50.566;9.774;2024-03-22T00:14:08;6.60;;;4.30;;
12925;SDS011;6529;50.566;9.774;2024-03-22T00:16:35;5.70;;;4.67;;
12925;SDS011;6529;50.566;9.774;2024-03-22T00:19:01;7.93;;;4.67;;
12925;SDS011;6529;50.566;9.774;2024-03-22T00:21:26;6.93;;;4.60;;
12925;SDS011;6529;50.566;9.774;2024-03-22T00:23:53;5.53;;;4.23;;
12925;SDS011;6529;50.566;9.774;2024-03-22T00:26:18;7.37;;;4.93;;
12925;SDS011;6529;50.566;9.774;2024-03-22T00:28:44;5.47;;;4.47;;
12925;SDS011;6529;50.566;9.774;2024-03-22T00:31:09;7.13;;;5.13;;
12925;SDS011;6529;50.566;9.774;2024-03-22T00:33:35;6.03;;;4.57;;
12925;SDS011;6529;50.566;9.774;2024-03-22T00:36:01;5.67;;;4.60;;
12925;SDS011;6529;50.566;9.774;2024-03-22T00:38:26;5.50;;;4.50;;
12925;SDS011;6529;50.566;9.774;2024-03-22T00:40:52;6.90;;;5.00;;
12925;SDS011;6529;50.566;9.774;2024-03-22T00:43:19;5.50;;;4.40;;
12925;SDS011;6529;50.566;9.774;2024-03-22T00:45:45;6.40;;;4.40;;
12925;SDS011;6529;50.566;9.774;2024-03-22T00:48:11;6.33;;;4.90;;
12925;SDS011;6529;50.566;9.774;2024-03-22T00:50:36;6.70;;;4.83;;
12925;SDS011;6529;50.566;9.774;2024-03-22T00:53:02;5.83;;;4.77;;
12925;SDS011;6529;50.566;9.774;2024-03-22T00:55:28;7.00;;;4.80;;
12925;SDS011;6529;50.566;9.774;2024-03-22T00:57:54;6.53;;;5.27;;
12925;SDS011;6529;50.566;9.774;2024-03-22T01:00:20;6.40;;;4.87;;
12925;SDS011;6529;50.566;9.774;2024-03-22T01:02:45;7.30;;;4.70;;
12925;SDS011;6529;50.566;9.774;2024-03-22T01:05:11;5.67;;;4.50;;
12925;SDS011;6529;50.566;9.774;2024-03-22T01:07:37;7.13;;;4.80;;
12925;SDS011;6529;50.566;9.774;2024-03-22T01:10:03;5.93;;;4.80;;
12925;SDS011;6529;50.566;9.774;2024-03-22T01:12:29;5.40;;;4.57;;
12925;SDS011;6529;50.566;9.774;2024-03-22T01:14:56;6.77;;;5.03;;
12925;SDS011;6529;50.566;9.774;2024-03-22T01:17:21;6.50;;;4.67;;
12925;SDS011;6529;50.566;9.774;2024-03-22T01:19:47;6.17;;;4.60;;
12925;SDS011;6529;50.566;9.774;2024-03-22T01:22:13;5.93;;;4.53;;
12925;SDS011;6529;50.566;9.774;2024-03-22T01:24:39;5.43;;;4.50;;
12925;SDS011;6529;50.566;9.774;2024-03-22T01:27:04;6.20;;;4.10;;
12925;SDS011;6529;50.566;9.774;2024-03-22T01:29:30;6.73;;;4.60;;
12925;SDS011;6529;50.566;9.774;2024-03-22T01:31:57;6.77;;;4.73;;
12925;SDS011;6529;50.566;9.774;2024-03-22T01:34:23;5.57;;;4.33;;
12925;SDS011;6529;50.566;9.774;2024-03-22T01:36:49;6.93;;;4.80;;
12925;SDS011;6529;50.566;9.774;2024-03-22T01:39:16;7.20;;;4.33;;
12925;SDS011;6529;50.566;9.774;2024-03-22T01:41:42;5.90;;;4.30;;
12925;SDS011;6529;50.566;9.774;2024-03-22T01:44:09;5.60;;;4.30;;
12925;SDS011;6529;50.566;9.774;2024-03-22T01:46:34;7.30;;;4.53;;
12925;SDS011;6529;50.566;9.774;2024-03-22T01:49:00;5.60;;;4.67;;
12925;SDS011;6529;50.566;9.774;2024-03-22T01:51:26;5.73;;;4.43;;
12925;SDS011;6529;50.566;9.774;2024-03-22T01:53:52;5.13;;;4.07;;
12925;SDS011;6529;50.566;9.774;2024-03-22T01:56:18;6.47;;;4.90;;
12925;SDS011;6529;50.566;9.774;2024-03-22T01:58:44;7.77;;;4.90;;
12925;SDS011;6529;50.566;9.774;2024-03-22T02:01:10;6.10;;;4.53;;
12925;SDS011;6529;50.566;9.774;2024-03-22T02:03:36;7.43;;;5.37;;
12925;SDS011;6529;50.566;9.774;2024-03-22T02:06:01;7.00;;;5.20;;
12925;SDS011;6529;50.566;9.774;2024-03-22T02:08:27;7.80;;;4.93;;
12925;SDS011;6529;50.566;9.774;2024-03-22T02:10:53;5.93;;;4.80;;
12925;SDS011;6529;50.566;9.774;2024-03-22T02:13:19;7.13;;;5.13;;
12925;SDS011;6529;50.566;9.774;2024-03-22T02:15:44;8.17;;;5.10;;
12925;SDS011;6529;50.566;9.774;2024-03-22T02:18:10;6.50;;;4.73;;
12925;SDS011;6529;50.566;9.774;2024-03-22T02:20:35;8.20;;;5.07;;
12925;SDS011;6529;50.566;9.774;2024-03-22T02:23:01;5.73;;;4.60;;
12925;SDS011;6529;50.566;9.774;2024-03-22T02:25:27;7.30;;;5.30;;
12925;SDS011;6529;50.566;9.774;2024-03-22T02:27:52;9.00;;;5.40;;
12925;SDS011;6529;50.566;9.774;2024-03-22T02:30:18;8.03;;;5.50;;
12925;SDS011;6529;50.566;9.774;2024-03-22T02:32:43;6.97;;;5.03;;
12925;SDS011;6529;50.566;9.774;2024-03-22T02:35:09;8.10;;;5.40;;
12925;SDS011;6529;50.566;9.774;2024-03-22T02:37:35;7.37;;;4.77;;
12925;SDS011;6529;50.566;9.774;2024-03-22T02:40:00;8.13;;;5.80;;
12925;SDS011;6529;50.566;9.774;2024-03-22T02:42:26;7.77;;;5.40;;
12925;SDS011;6529;50.566;9.774;2024-03-22T02:44:52;8.73;;;5.83;;
12925;SDS011;6529;50.566;9.774;2024-03-22T02:47:17;8.33;;;5.77;;
12925;SDS011;6529;50.566;9.774;2024-03-22T02:49:43;9.83;;;6.43;;
12925;SDS011;6529;50.566;9.774;2024-03-22T02:52:09;8.70;;;6.10;;
12925;SDS011;6529;50.566;9.774;2024-03-22T02:54:34;9.90;;;6.17;;
12925;SDS011;6529;50.566;9.774;2024-03-22T02:57:00;9.83;;;6.33;;
12925;SDS011;6529;50.566;9.774;2024-03-22T02:59:26;9.70;;;6.83;;
12925;SDS011;6529;50.566;9.774;2024-03-22T03:01:52;11.40;;;7.00;;
12925;SDS011;6529;50.566;9.774;2024-03-22T03:04:18;10.00;;;6.50;;
12925;SDS011;6529;50.566;9.774;2024-03-22T03:06:44;11.00;;;7.13;;
12925;SDS011;6529;50.566;9.774;2024-03-22T03:09:10;11.13;;;6.83;;
12925;SDS011;6529;50.566;9.774;2024-03-22T03:11:37;11.90;;;7.37;;
12925;SDS011;6529;50.566;9.774;2024-03-22T03:14:04;14.90;;;7.70;;
12925;SDS011;6529;50.566;9.774;2024-03-22T03:16:30;12.27;;;7.50;;
12925;SDS011;6529;50.566;9.774;2024-03-22T03:18:55;10.17;;;6.30;;
12925;SDS011;6529;50.566;9.774;2024-03-22T03:21:21;8.77;;;6.13;;
12925;SDS011;6529;50.566;9.774;2024-03-22T03:23:47;9.50;;;6.77;;
12925;SDS011;6529;50.566;9.774;2024-03-22T03:26:12;10.13;;;6.77;;
12925;SDS011;6529;50.566;9.774;2024-03-22T03:28:38;9.10;;;6.13;;
12925;SDS011;6529;50.566;9.774;2024-03-22T03:31:03;10.67;;;6.70;;
12925;SDS011;6529;50.566;9.774;2024-03-22T03:33:29;9.40;;;6.60;;
12925;SDS011;6529;50.566;9.774;2024-03-22T03:35:55;9.87;;;6.63;;
12925;SDS011;6529;50.566;9.774;2024-03-22T03:38:21;10.10;;;6.10;;
12925;SDS011;6529;50.566;9.774;2024-03-22T03:40:47;10.57;;;6.80;;
12925;SDS011;6529;50.566;9.774;2024-03-22T03:43:13;12.57;;;7.20;;
12925;SDS011;6529;50.566;9.774;2024-03-22T03:45:39;10.30;;;7.20;;
12925;SDS011;6529;50.566;9.774;2024-03-22T03:48:04;10.47;;;6.90;;
12925;SDS011;6529;50.566;9.774;2024-03-22T03:50:30;8.97;;;5.67;;
12925;SDS011;6529;50.566;9.774;2024-03-22T03:52:56;9.43;;;6.77;;
12925;SDS011;6529;50.566;9.774;2024-03-22T03:55:22;8.13;;;5.73;;
12925;SDS011;6529;50.566;9.774;2024-03-22T03:57:49;9.33;;;6.50;;
12925;SDS011;6529;50.566;9.774;2024-03-22T04:00:15;9.40;;;6.10;;
12925;SDS011;6529;50.566;9.774;2024-03-22T04:02:41;9.20;;;6.30;;
12925;SDS011;6529;50.566;9.774;2024-03-22T04:05:07;9.27;;;6.47;;
12925;SDS011;6529;50.566;9.774;2024-03-22T04:07:32;11.33;;;6.67;;
12925;SDS011;6529;50.566;9.774;2024-03-22T04:09:58;11.40;;;6.60;;
12925;SDS011;6529;50.566;9.774;2024-03-22T04:12:25;11.53;;;6.80;;
12925;SDS011;6529;50.566;9.774;2024-03-22T04:14:51;10.43;;;7.17;;
12925;SDS011;6529;50.566;9.774;2024-03-22T04:17:17;12.53;;;7.93;;
12925;SDS011;6529;50.566;9.774;2024-03-22T04:19:43;10.53;;;6.50;;
12925;SDS011;6529;50.566;9.774;2024-03-22T04:22:08;10.43;;;7.00;;
12925;SDS011;6529;50.566;9.774;2024-03-22T04:24:34;9.83;;;7.00;;
12925;SDS011;6529;50.566;9.774;2024-03-22T04:27:00;10.50;;;6.93;;
12925;SDS011;6529;50.566;9.774;2024-03-22T04:29:25;11.20;;;7.03;;
12925;SDS011;6529;50.566;9.774;2024-03-22T04:31:51;11.40;;;7.67;;
12925;SDS011;6529;50.566;9.774;2024-03-22T04:34:16;11.00;;;7.60;;
12925;SDS011;6529;50.566;9.774;2024-03-22T04:36:42;11.60;;;7.93;;
12925;SDS011;6529;50.566;9.774;2024-03-22T04:39:08;11.87;;;8.17;;
12925;SDS011;6529;50.566;9.774;2024-03-22T04:41:34;12.70;;;8.20;;
12925;SDS011;6529;50.566;9.774;2024-03-22T04:44:00;14.20;;;8.90;;
12925;SDS011;6529;50.566;9.774;2024-03-22T04:46:25;12.67;;;8.33;;
12925;SDS011;6529;50.566;9.774;2024-03-22T04:48:51;12.20;;;8.20;;
12925;SDS011;6529;50.566;9.774;2024-03-22T04:51:16;13.23;;;8.57;;
12925;SDS011;6529;50.566;9.774;2024-03-22T04:53:42;13.27;;;8.97;;
12925;SDS011;6529;50.566;9.774;2024-03-22T04:56:09;15.17;;;9.10;;
12925;SDS011;6529;50.566;9.774;2024-03-22T04:58:34;16.17;;;9.73;;
12925;SDS011;6529;50.566;9.774;2024-03-22T05:01:00;22.47;;;12.30;;
12925;SDS011;6529;50.566;9.774;2024-03-22T05:03:25;20.20;;;11.87;;
12925;SDS011;6529;50.566;9.774;2024-03-22T05:05:51;27.10;;;13.23;;
12925;SDS011;6529;50.566;9.774;2024-03-22T05:08:17;27.87;;;13.23;;
12925;SDS011;6529;50.566;9.774;2024-03-22T05:10:42;31.33;;;15.80;;
12925;SDS011;6529;50.566;9.774;2024-03-22T05:13:08;24.57;;;13.33;;
12925;SDS011;6529;50.566;9.774;2024-03-22T05:15:33;28.13;;;14.53;;
12925;SDS011;6529;50.566;9.774;2024-03-22T05:17:59;28.97;;;14.73;;
12925;SDS011;6529;50.566;9.774;2024-03-22T05:20:25;31.60;;;16.50;;
12925;SDS011;6529;50.566;9.774;2024-03-22T05:22:51;30.00;;;15.53;;
12925;SDS011;6529;50.566;9.774;2024-03-22T05:25:17;32.40;;;16.10;;
12925;SDS011;6529;50.566;9.774;2024-03-22T05:27:43;30.20;;;16.17;;
12925;SDS011;6529;50.566;9.774;2024-03-22T05:30:09;31.10;;;15.07;;
12925;SDS011;6529;50.566;9.774;2024-03-22T05:32:36;33.83;;;15.83;;
12925;SDS011;6529;50.566;9.774;2024-03-22T05:35:02;31.93;;;16.47;;
12925;SDS011;6529;50.566;9.774;2024-03-22T05:37:27;32.80;;;16.57;;
12925;SDS011;6529;50.566;9.774;2024-03-22T05:39:53;32.40;;;16.00;;
12925;SDS011;6529;50.566;9.774;2024-03-22T05:42:19;32.17;;;16.10;;
12925;SDS011;6529;50.566;9.774;2024-03-22T05:44:45;29.57;;;15.83;;
12925;SDS011;6529;50.566;9.774;2024-03-22T05:47:10;28.73;;;15.57;;
12925;SDS011;6529;50.566;9.774;2024-03-22T05:49:36;30.33;;;15.60;;
12925;SDS011;6529;50.566;9.774;2024-03-22T05:52:01;29.70;;;14.87;;
12925;SDS011;6529;50.566;9.774;2024-03-22T05:54:27;27.07;;;15.07;;
12925;SDS011;6529;50.566;9.774;2024-03-22T05:56:53;21.87;;;12.70;;
12925;SDS011;6529;50.566;9.774;2024-03-22T05:59:18;26.33;;;14.43;;
12925;SDS011;6529;50.566;9.774;2024-03-22T06:01:44;30.10;;;14.97;;
12925;SDS011;6529;50.566;9.774;2024-03-22T06:04:09;29.37;;;14.90;;
12925;SDS011;6529;50.566;9.774;2024-03-22T06:06:35;27.10;;;14.73;;
12925;SDS011;6529;50.566;9.774;2024-03-22T06:09:04;28.53;;;13.77;;
12925;SDS011;6529;50.566;9.774;2024-03-22T06:11:33;28.60;;;14.30;;
12925;SDS011;6529;50.566;9.774;2024-03-22T06:13:59;32.03;;;15.40;;
12925;SDS011;6529;50.566;9.774;2024-03-22T06:16:25;28.77;;;15.47;;
12925;SDS011;6529;50.566;9.774;2024-03-22T06:18:51;29.50;;;15.43;;
12925;SDS011;6529;50.566;9.774;2024-03-22T06:21:17;31.13;;;16.30;;
12925;SDS011;6529;50.566;9.774;2024-03-22T06:23:48;18.70;;;9.03;;
12925;SDS011;6529;50.566;9.774;2024-03-22T06:26:15;27.20;;;12.60;;
12925;SDS011;6529;50.566;9.774;2024-03-22T06:28:40;22.07;;;12.60;;
12925;SDS011;6529;50.566;9.774;2024-03-22T06:31:06;28.53;;;15.23;;
12925;SDS011;6529;50.566;9.774;2024-03-22T06:33:31;27.97;;;15.77;;
12925;SDS011;6529;50.566;9.774;2024-03-22T06:35:57;27.97;;;15.70;;
12925;SDS011;6529;50.566;9.774;2024-03-22T06:38:22;31.73;;;15.97;;
12925;SDS011;6529;50.566;9.774;2024-03-22T06:40:48;30.17;;;16.20;;
12925;SDS011;6529;50.566;9.774;2024-03-22T06:43:13;28.30;;;16.07;;
12925;SDS011;6529;50.566;9.774;2024-03-22T06:45:39;30.57;;;16.17;;
12925;SDS011;6529;50.566;9.774;2024-03-22T06:48:04;29.87;;;16.10;;
12925;SDS011;6529;50.566;9.774;2024-03-22T06:50:30;30.73;;;15.90;;
12925;SDS011;6529;50.566;9.774;2024-03-22T06:52:56;28.63;;;15.97;;
12925;SDS011;6529;50.566;9.774;2024-03-22T06:55:21;33.00;;;16.43;;
12925;SDS011;6529;50.566;9.774;2024-03-22T06:57:48;30.93;;;16.43;;
12925;SDS011;6529;50.566;9.774;2024-03-22T07:00:14;30.57;;;15.67;;
12925;SDS011;6529;50.566;9.774;2024-03-22T07:02:41;28.57;;;14.87;;
12925;SDS011;6529;50.566;9.774;2024-03-22T07:05:07;28.20;;;15.00;;
12925;SDS011;6529;50.566;9.774;2024-03-22T07:07:33;26.90;;;14.33;;
12925;SDS011;6529;50.566;9.774;2024-03-22T07:10:00;29.33;;;15.60;;
12925;SDS011;6529;50.566;9.774;2024-03-22T07:12:25;29.30;;;15.30;;
12925;SDS011;6529;50.566;9.774;2024-03-22T07:14:51;28.60;;;14.53;;
12925;SDS011;6529;50.566;9.774;2024-03-22T07:17:17;26.37;;;14.33;;
12925;SDS011;6529;50.566;9.774;2024-03-22T07:19:42;26.03;;;14.97;;
12925;SDS011;6529;50.566;9.774;2024-03-22T07:22:08;24.80;;;14.60;;
12925;SDS011;6529;50.566;9.774;2024-03-22T07:24:34;29.70;;;15.20;;
12925;SDS011;6529;50.566;9.774;2024-03-22T07:26:59;25.20;;;14.30;;
12925;SDS011;6529;50.566;9.774;2024-03-22T07:29:25;25.27;;;14.23;;
12925;SDS011;6529;50.566;9.774;2024-03-22T07:31:50;25.50;;;14.40;;
12925;SDS011;6529;50.566;9.774;2024-03-22T07:34:16;24.03;;;14.90;;
12925;SDS011;6529;50.566;9.774;2024-03-22T07:36:41;24.70;;;14.17;;
12925;SDS011;6529;50.566;9.774;2024-03-22T07:39:07;22.33;;;13.47;;
12925;SDS011;6529;50.566;9.774;2024-03-22T07:41:33;23.33;;;13.27;;
12925;SDS011;6529;50.566;9.774;2024-03-22T07:43:59;23.70;;;13.37;;
12925;SDS011;6529;50.566;9.774;2024-03-22T07:46:25;25.90;;;13.50;;
12925;SDS011;6529;50.566;9.774;2024-03-22T07:48:51;23.83;;;12.80;;
12925;SDS011;6529;50.566;9.774;2024-03-22T07:51:17;20.63;;;12.60;;
12925;SDS011;6529;50.566;9.774;2024-03-22T07:53:43;22.27;;;12.97;;
12925;SDS011;6529;50.566;9.774;2024-03-22T07:56:09;22.97;;;13.57;;
12925;SDS011;6529;50.566;9.774;2024-03-22T07:58:34;20.87;;;12.27;;
12925;SDS011;6529;50.566;9.774;2024-03-22T08:01:00;25.90;;;13.20;;
12925;SDS011;6529;50.566;9.774;2024-03-22T08:03:26;22.90;;;12.90;;
12925;SDS011;6529;50.566;9.774;2024-03-22T08:05:51;23.00;;;12.60;;
12925;SDS011;6529;50.566;9.774;2024-03-22T08:08:17;21.27;;;12.13;;
12925;SDS011;6529;50.566;9.774;2024-03-22T08:10:43;22.27;;;12.73;;
12925;SDS011;6529;50.566;9.774;2024-03-22T08:13:08;19.93;;;11.97;;
12925;SDS011;6529;50.566;9.774;2024-03-22T08:15:34;21.80;;;11.93;;
12925;SDS011;6529;50.566;9.774;2024-03-22T08:18:00;19.97;;;12.17;;
12925;SDS011;6529;50.566;9.774;2024-03-22T08:20:26;21.10;;;12.47;;
12925;SDS011;6529;50.566;9.774;2024-03-22T08:22:53;18.50;;;11.63;;
12925;SDS011;6529;50.566;9.774;2024-03-22T08:25:19;20.07;;;11.23;;
12925;SDS011;6529;50.566;9.774;2024-03-22T08:27:45;21.07;;;11.40;;
12925;SDS011;6529;50.566;9.774;2024-03-22T08:30:12;19.60;;;11.77;;
12925;SDS011;6529;50.566;9.774;2024-03-22T08:32:38;16.80;;;10.57;;
12925;SDS011;6529;50.566;9.774;2024-03-22T08:35:03;18.73;;;10.77;;
12925;SDS011;6529;50.566;9.774;2024-03-22T08:37:30;17.77;;;9.97;;
12925;SDS011;6529;50.566;9.774;2024-03-22T08:39:56;17.87;;;10.33;;
12925;SDS011;6529;50.566;9.774;2024-03-22T08:42:21;16.47;;;9.70;;
12925;SDS011;6529;50.566;9.774;2024-03-22T08:44:47;17.80;;;9.60;;
12925;SDS011;6529;50.566;9.774;2024-03-22T08:47:12;15.40;;;9.23;;
12925;SDS011;6529;50.566;9.774;2024-03-22T08:49:38;15.70;;;9.27;;
12925;SDS011;6529;50.566;9.774;2024-03-22T08:52:06;14.93;;;9.00;;
12925;SDS011;6529;50.566;9.774;2024-03-22T08:54:32;16.67;;;9.63;;
12925;SDS011;6529;50.566;9.774;2024-03-22T08:56:57;15.63;;;9.50;;
12925;SDS011;6529;50.566;9.774;2024-03-22T08:59:23;16.23;;;9.60;;
12925;SDS011;6529;50.566;9.774;2024-03-22T09:01:49;15.43;;;9.30;;
12925;SDS011;6529;50.566;9.774;2024-03-22T09:04:15;14.83;;;8.87;;
12925;SDS011;6529;50.566;9.774;2024-03-22T09:06:41;15.00;;;9.03;;
12925;SDS011;6529;50.566;9.774;2024-03-22T09:09:06;14.33;;;8.97;;
12925;SDS011;6529;50.566;9.774;2024-03-22T09:11:33;14.47;;;8.90;;
12925;SDS011;6529;50.566;9.774;2024-03-22T09:13:58;17.07;;;9.37;;
12925;SDS011;6529;50.566;9.774;2024-03-22T09:16:24;14.13;;;9.10;;
12925;SDS011;6529;50.566;9.774;2024-03-22T09:18:49;15.50;;;8.77;;
12925;SDS011;6529;50.566;9.774;2024-03-22T09:21:16;14.27;;;8.80;;
12925;SDS011;6529;50.566;9.774;2024-03-22T09:23:41;12.73;;;8.37;;
12925;SDS011;6529;50.566;9.774;2024-03-22T09:26:07;14.33;;;8.53;;
12925;SDS011;6529;50.566;9.774;2024-03-22T09:28:32;15.83;;;8.70;;
12925;SDS011;6529;50.566;9.774;2024-03-22T09:31:02;13.20;;;8.67;;
12925;SDS011;6529;50.566;9.774;2024-03-22T09:33:34;14.30;;;8.93;;
12925;SDS011;6529;50.566;9.774;2024-03-22T09:36:00;16.20;;;8.70;;
12925;SDS011;6529;50.566;9.774;2024-03-22T09:38:26;12.67;;;7.90;;
12925;SDS011;6529;50.566;9.774;2024-03-22T09:40:52;13.03;;;8.27;;
12925;SDS011;6529;50.566;9.774;2024-03-22T09:43:19;13.27;;;8.47;;
12925;SDS011;6529;50.566;9.774;2024-03-22T09:45:46;12.50;;;7.60;;
12925;SDS011;6529;50.566;9.774;2024-03-22T09:48:14;11.67;;;8.07;;
12925;SDS011;6529;50.566;9.774;2024-03-22T09:50:42;11.67;;;7.37;;
12925;SDS011;6529;50.566;9.774;2024-03-22T09:53:09;12.10;;;7.60;;
12925;SDS011;6529;50.566;9.774;2024-03-22T09:55:35;12.63;;;7.53;;
12925;SDS011;6529;50.566;9.774;2024-03-22T09:58:02;12.10;;;7.13;;
12925;SDS011;6529;50.566;9.774;2024-03-22T10:00:28;10.57;;;7.27;;
12925;SDS011;6529;50.566;9.774;2024-03-22T10:02:56;11.13;;;7.20;;
12925;SDS011;6529;50.566;9.774;2024-03-22T10:05:22;11.23;;;7.33;;
12925;SDS011;6529;50.566;9.774;2024-03-22T10:07:47;11.23;;;7.53;;
12925;SDS011;6529;50.566;9.774;2024-03-22T10:10:14;13.33;;;7.63;;
12925;SDS011;6529;50.566;9.774;2024-03-22T10:12:40;10.97;;;7.87;;
12925;SDS011;6529;50.566;9.774;2024-03-22T10:15:06;10.97;;;7.27;;
12925;SDS011;6529;50.566;9.774;2024-03-22T10:17:34;10.97;;;7.93;;
12925;SDS011;6529;50.566;9.774;2024-03-22T10:20:01;10.90;;;7.43;;
12925;SDS011;6529;50.566;9.774;2024-03-22T10:22:26;11.27;;;7.67;;
12925;SDS011;6529;50.566;9.774;2024-03-22T10:24:52;11.07;;;7.00;;
12925;SDS011;6529;50.566;9.774;2024-03-22T10:27:18;11.47;;;7.47;;
12925;SDS011;6529;50.566;9.774;2024-03-22T10:29:44;11.90;;;8.30;;
12925;SDS011;6529;50.566;9.774;2024-03-22T10:32:10;10.40;;;6.93;;
12925;SDS011;6529;50.566;9.774;2024-03-22T10:34:37;9.50;;;6.80;;
12925;SDS011;6529;50.566;9.774;2024-03-22T10:37:04;10.67;;;7.47;;
12925;SDS011;6529;50.566;9.774;2024-03-22T10:39:31;10.87;;;7.10;;
12925;SDS011;6529;50.566;9.774;2024-03-22T10:41:58;10.97;;;7.40;;
12925;SDS011;6529;50.566;9.774;2024-03-22T10:44:23;9.30;;;6.90;;
12925;SDS011;6529;50.566;9.774;2024-03-22T10:46:49;11.07;;;7.63;;
12925;SDS011;6529;50.566;9.774;2024-03-22T10:49:20;10.60;;;7.20;;
12925;SDS011;6529;50.566;9.774;2024-03-22T10:51:47;8.50;;;6.90;;
12925;SDS011;6529;50.566;9.774;2024-03-22T10:54:21;11.17;;;8.23;;
12925;SDS011;6529;50.566;9.774;2024-03-22T10:56:50;12.33;;;7.57;;
12925;SDS011;6529;50.566;9.774;2024-03-22T10:59:19;11.33;;;8.13;;
12925;SDS011;6529;50.566;9.774;2024-03-22T11:01:46;10.10;;;7.47;;
12925;SDS011;6529;50.566;9.774;2024-03-22T11:04:15;11.60;;;7.83;;
12925;SDS011;6529;50.566;9.774;2024-03-22T11:06:49;10.40;;;8.33;;
12925;SDS011;6529;50.566;9.774;2024-03-22T11:09:22;15.30;;;10.43;;
12925;SDS011;6529;50.566;9.774;2024-03-22T11:11:48;14.73;;;10.20;;
12925;SDS011;6529;50.566;9.774;2024-03-22T11:14:16;14.27;;;9.03;;
12925;SDS011;6529;50.566;9.774;2024-03-22T11:16:43;11.67;;;8.53;;
12925;SDS011;6529;50.566;9.774;2024-03-22T11:19:11;12.33;;;8.47;;
12925;SDS011;6529;50.566;9.774;2024-03-22T11:21:37;17.67;;;11.70;;
12925;SDS011;6529;50.566;9.774;2024-03-22T11:24:04;10.47;;;8.03;;
12925;SDS011;6529;50.566;9.774;2024-03-22T11:26:30;12.70;;;8.83;;
12925;SDS011;6529;50.566;9.774;2024-03-22T11:28:55;10.77;;;8.30;;
12925;SDS011;6529;50.566;9.774;2024-03-22T11:31:21;11.07;;;7.57;;
12925;SDS011;6529;50.566;9.774;2024-03-22T11:33:52;11.30;;;8.07;;
12925;SDS011;6529;50.566;9.774;2024-03-22T11:36:24;11.27;;;7.67;;
12925;SDS011;6529;50.566;9.774;2024-03-22T11:38:49;11.60;;;8.23;;
12925;SDS011;6529;50.566;9.774;2024-03-22T11:41:18;10.23;;;7.60;;
12925;SDS011;6529;50.566;9.774;2024-03-22T11:43:49;10.10;;;7.90;;
12925;SDS011;6529;50.566;9.774;2024-03-22T11:46:15;12.23;;;8.00;;
12925;SDS011;6529;50.566;9.774;2024-03-22T11:48:42;9.60;;;7.20;;
12925;SDS011;6529;50.566;9.774;2024-03-22T11:51:08;11.30;;;7.97;;
12925;SDS011;6529;50.566;9.774;2024-03-22T11:53:34;9.93;;;7.27;;
12925;SDS011;6529;50.566;9.774;2024-03-22T11:56:00;9.90;;;7.40;;
12925;SDS011;6529;50.566;9.774;2024-03-22T11:58:28;11.20;;;7.60;;
12925;SDS011;6529;50.566;9.774;2024-03-22T12:00:55;10.80;;;7.93;;
12925;SDS011;6529;50.566;9.774;2024-03-22T12:03:21;11.03;;;7.90;;
12925;SDS011;6529;50.566;9.774;2024-03-22T12:05:47;10.70;;;7.57;;
12925;SDS011;6529;50.566;9.774;2024-03-22T12:08:15;9.97;;;7.73;;
12925;SDS011;6529;50.566;9.774;2024-03-22T12:10:42;10.03;;;7.67;;
12925;SDS011;6529;50.566;9.774;2024-03-22T12:13:08;10.63;;;8.03;;
12925;SDS011;6529;50.566;9.774;2024-03-22T12:15:34;13.07;;;8.10;;
12925;SDS011;6529;50.566;9.774;2024-03-22T12:18:00;12.67;;;7.87;;
12925;SDS011;6529;50.566;9.774;2024-03-22T12:20:25;11.00;;;8.40;;
12925;SDS011;6529;50.566;9.774;2024-03-22T12:22:52;11.07;;;8.13;;
12925;SDS011;6529;50.566;9.774;2024-03-22T12:25:17;11.80;;;8.07;;
12925;SDS011;6529;50.566;9.774;2024-03-22T12:27:43;12.10;;;8.40;;
12925;SDS011;6529;50.566;9.774;2024-03-22T12:30:09;10.30;;;8.10;;
12925;SDS011;6529;50.566;9.774;2024-03-22T12:32:36;12.97;;;8.97;;
12925;SDS011;6529;50.566;9.774;2024-03-22T12:35:01;10.10;;;7.83;;
12925;SDS011;6529;50.566;9.774;2024-03-22T12:37:27;10.30;;;8.17;;
12925;SDS011;6529;50.566;9.774;2024-03-22T12:39:53;10.10;;;7.53;;
12925;SDS011;6529;50.566;9.774;2024-03-22T12:42:19;9.70;;;7.87;;
12925;SDS011;6529;50.566;9.774;2024-03-22T12:44:45;11.90;;;8.17;;
12925;SDS011;6529;50.566;9.774;2024-03-22T12:47:11;10.43;;;8.27;;
12925;SDS011;6529;50.566;9.774;2024-03-22T12:49:36;11.53;;;8.03;;
12925;SDS011;6529;50.566;9.774;2024-03-22T12:52:02;10.43;;;8.30;;
12925;SDS011;6529;50.566;9.774;2024-03-22T12:54:28;11.03;;;8.40;;
12925;SDS011;6529;50.566;9.774;2024-03-22T12:56:54;9.83;;;7.93;;
12925;SDS011;6529;50.566;9.774;2024-03-22T12:59:20;10.20;;;7.70;;
12925;SDS011;6529;50.566;9.774;2024-03-22T13:01:46;9.90;;;8.30;;
12925;SDS011;6529;50.566;9.774;2024-03-22T13:04:12;12.00;;;7.97;;
12925;SDS011;6529;50.566;9.774;2024-03-22T13:06:37;9.57;;;7.83;;
12925;SDS011;6529;50.566;9.774;2024-03-22T13:09:03;12.50;;;8.83;;
12925;SDS011;6529;50.566;9.774;2024-03-22T13:11:29;13.83;;;9.20;;
12925;SDS011;6529;50.566;9.774;2024-03-22T13:13:56;13.03;;;9.00;;
12925;SDS011;6529;50.566;9.774;2024-03-22T13:16:22;11.20;;;7.60;;
12925;SDS011;6529;50.566;9.774;2024-03-22T13:18:48;9.37;;;6.87;;
12925;SDS011;6529;50.566;9.774;2024-03-22T13:21:14;10.03;;;6.97;;
12925;SDS011;6529;50.566;9.774;2024-03-22T13:23:39;8.10;;;6.87;;
12925;SDS011;6529;50.566;9.774;2024-03-22T13:26:05;8.73;;;7.10;;
12925;SDS011;6529;50.566;9.774;2024-03-22T13:28:31;9.73;;;7.30;;
12925;SDS011;6529;50.566;9.774;2024-03-22T13:31:01;10.47;;;7.30;;
12925;SDS011;6529;50.566;9.774;2024-03-22T13:33:33;10.20;;;7.17;;
12925;SDS011;6529;50.566;9.774;2024-03-22T13:35:59;9.53;;;7.67;;
12925;SDS011;6529;50.566;9.774;2024-03-22T13:38:25;9.37;;;7.73;;
12925;SDS011;6529;50.566;9.774;2024-03-22T13:40:55;9.47;;;8.17;;
12925;SDS011;6529;50.566;9.774;2024-03-22T13:43:21;10.47;;;7.40;;
12925;SDS011;6529;50.566;9.774;2024-03-22T13:45:49;8.53;;;7.33;;
12925;SDS011;6529;50.566;9.774;2024-03-22T13:48:23;11.60;;;8.20;;
12925;SDS011;6529;50.566;9.774;2024-03-22T13:50:53;10.70;;;7.67;;
12925;SDS011;6529;50.566;9.774;2024-03-22T13:53:20;10.73;;;7.80;;
12925;SDS011;6529;50.566;9.774;2024-03-22T13:55:47;10.23;;;7.93;;
12925;SDS011;6529;50.566;9.774;2024-03-22T13:58:13;9.67;;;8.20;;
12925;SDS011;6529;50.566;9.774;2024-03-22T14:00:39;10.40;;;8.13;;
12925;SDS011;6529;50.566;9.774;2024-03-22T14:03:05;8.63;;;7.13;;
12925;SDS011;6529;50.566;9.774;2024-03-22T14:05:30;11.83;;;8.77;;
12925;SDS011;6529;50.566;9.774;2024-03-22T14:07:57;10.03;;;8.30;;
12925;SDS011;6529;50.566;9.774;2024-03-22T14:10:23;9.60;;;7.80;;
12925;SDS011;6529;50.566;9.774;2024-03-22T14:12:51;10.17;;;8.17;;
12925;SDS011;6529;50.566;9.774;2024-03-22T14:15:17;12.27;;;8.50;;
12925;SDS011;6529;50.566;9.774;2024-03-22T14:17:43;10.50;;;7.83;;
12925;SDS011;6529;50.566;9.774;2024-03-22T14:20:08;12.13;;;9.70;;
12925;SDS011;6529;50.566;9.774;2024-03-22T14:22:40;13.15;;;10.10;;
12925;SDS011;6529;50.566;9.774;2024-03-22T14:25:09;9.77;;;8.43;;
12925;SDS011;6529;50.566;9.774;2024-03-22T14:27:35;11.80;;;7.73;;
12925;SDS011;6529;50.566;9.774;2024-03-22T14:30:01;10.73;;;7.57;;
12925;SDS011;6529;50.566;9.774;2024-03-22T14:32:33;11.00;;;8.33;;
12925;SDS011;6529;50.566;9.774;2024-03-22T14:34:59;12.07;;;7.60;;
12925;SDS011;6529;50.566;9.774;2024-03-22T14:37:25;11.63;;;7.90;;
12925;SDS011;6529;50.566;9.774;2024-03-22T14:39:51;10.43;;;7.47;;
12925;SDS011;6529;50.566;9.774;2024-03-22T14:42:16;11.50;;;7.83;;